Fair Haven, MI (48023)

10:34 AM EDT on May 05, 2015 (GMT -0400)
Swan Creek | | Change Station
CLOSE
Current Station
Personal Weather Station
Location: Michigan, MI
Elevation: 584 ft
Nearby Weather Stations

Elev 584 ft 42.68 °N, 82.65 °W | Updated 2 minutes ago

Overcast
Overcast
53.0 °F
Feels Like 53.0 °F
N
6.0
Wind Variable Wind from NE
Gusts 7.0 mph

Today
High -- | Low -- °F
--% Chance of Precip.
Yesterday
High -- | Low -- °F
Precip. -- in
6:20 AM 8:35 PM
Full, 98% visible
Pressure 30.30 in
Visibility 10.0 miles
Clouds Few 3600 ft
Few 5500 ft
Mostly Cloudy 7500 ft
Overcast 9000 ft
Dew Point 41 °F
Humidity 65%
Rainfall 0.00 in
Snow Depth Not available.
UV 1 out of 12
Pollen 9.10 out of 12
Air Quality Not available.
Flu Activity Regional
METAR KMTC 051355Z 04003KT 10SM FEW036 FEW055 BKN075 OVC090 12/03 A3027 RMK SLP259 T01200033

More Conditions Fewer Conditions

Pressure 30.30 in
Visibility 10.0 miles
Clouds Few 3600 ft
Few 5500 ft
Mostly Cloudy 7500 ft
Overcast 9000 ft
Dew Point 41 °F
Humidity 65%
Rainfall 0.00 in
Snow Depth Not available.
UV 1 out of 12
Pollen 9.10 out of 12
Air Quality Not available.
Flu Activity Regional
METAR KMTC 051355Z 04003KT 10SM FEW036 FEW055 BKN075 OVC090 12/03 A3027 RMK SLP259 T01200033

More Conditions Fewer Conditions

10-Day Weather Forecast

Almanac

Astronomy

May. 05, 2015 Rise Set
Actual Time
Civil Twilight
Nautical Twilight
Astronomical Twilight
Moon
Length of Visible Light
Length of Day
Tomorrow will be .
, % of the Moon is Illuminated

Today's Extremes

State Highs State Lows

Community

WunderPhotos

Upload Photos

1,818,903 photos uploaded!

WunderBlogs® & News

Nearby

Air Quality

  Air Quality AQ Index Pollutant
Not available.

Snow Depth

Station Depth Elevation

Earthquake Activity

City Distance Mag. Time & Date
Minimum magnitude displayed is 2.5.

Coastal Water Temperatures

Place Temperature

Stations

Nearby Weather Stations

Station Location Temp. Windchill Dew Point Humidity Wind Precip. Elev Updated Type